Terminal Aerodrome Forecast
Issued by NWS

Home | Current Version | Previous Version | Text Only | Print | Product List | Glossary Off
Versions: 1 2 3 4 5 6 7 8 9 10 11 12 13 14 15 16 17 18 19 20 21 22 23 24 25

717
FTUS43 KMPX 190526
TAFAXN
TAF
KAXN 190526Z 1906/2006 17007KT 5SM BR SKC
     FM190800 18006KT 1/2SM FG VV002
     FM191300 18008KT 3SM BR FEW004
     FM191800 17010KT 4SM BR SCT010 BKN250
     FM192300 17009KT 5SM BR OVC010=

USA.gov is the U.S. government's official web portal to all federal, state and local government web resources and services.